Abadia dos Dourados, Brazil
Current Conditions -  °F | °C
As of 10:00 AM on Sunday 25 Jan 2015 (Local Time) from SBUL Reporting Station
Broken Clouds Broken Clouds  
Wind Chill: 73°   Ceiling: 10000
Heat Index: 73°   Visibility: 6mi
Dew Point: 61°   Wind: 10mph
Humidity: 65%   Direction: 30°NNE
Pressure: 30.12"   Gusts: NA
Location:  18.49°S, 47.4°W
Report Text: SBUL 251200Z 03009KT 9999 FEW017 BKN100 23/16 Q1020
Loading
Personal Weather Stations






























Interactive Weather Map New forecast layout! Learn more

10-Day Weather Forecast

Advertisements
Track Severe Weather on mobile